Time;durP1;ratioP1;P1;durP2;ratioP2;P2;SDS_P1;SDS_P2;PMS_P1;PMS_P2;Temp;Humidity;BMP_temperature;BMP_pressure;BME280_temperature;BME280_humidity;BME280_pressure;Samples;Min_cycle;Max_cycle;Signal;HPM_P1;HPM_P2
2021/03/14 00:01:03;;;;;;;;;50.00;40.25;;;;;-142.71;100.00;64517.53;3724936;38;20622;-60
2021/03/14 00:03:31;;;;;;;;;47.25;42.25;;;;;-142.71;100.00;64517.53;3725305;38;21554;-58
2021/03/14 00:05:59;;;;;;;;;62.25;43.50;;;;;-142.71;100.00;64517.53;3724983;37;21573;-59
2021/03/14 00:08:29;;;;;;;;;50.75;40.00;;;;;-142.71;100.00;64517.53;3724507;38;20567;-60
2021/03/14 00:11:01;;;;;;;;;62.50;45.25;;;;;-142.71;100.00;64517.53;3725299;37;21483;-59
2021/03/14 00:13:31;;;;;;;;;50.50;42.25;;;;;-142.71;100.00;64517.53;3725246;38;21540;-58
2021/03/14 00:15:58;;;;;;;;;60.50;41.50;;;;;-142.71;100.00;64517.53;3725250;37;21572;-58
2021/03/14 00:18:32;;;;;;;;;42.25;31.75;;;;;-142.71;100.00;64517.53;3725183;37;20561;-60
2021/03/14 00:21:00;;;;;;;;;55.50;44.00;;;;;-142.71;100.00;64517.53;3724789;38;21577;-59
2021/03/14 00:23:26;;;;;;;;;60.00;43.00;;;;;-142.71;100.00;64517.53;3724643;37;21537;-59
2021/03/14 00:25:56;;;;;;;;;44.00;38.00;;;;;-142.71;100.00;64517.53;3725149;38;21588;-61
2021/03/14 00:28:24;;;;;;;;;53.50;42.50;;;;;-142.71;100.00;64517.53;3725043;38;21524;-60
2021/03/14 00:30:52;;;;;;;;;56.50;42.50;;;;;-142.71;100.00;64517.53;3725033;38;21546;-59
2021/03/14 00:33:20;;;;;;;;;44.75;38.50;;;;;-142.71;100.00;64517.53;3725209;37;21507;-59
2021/03/14 00:35:46;;;;;;;;;57.50;45.25;;;;;-142.71;100.00;64517.53;3724484;38;21562;-59
2021/03/14 00:38:13;;;;;;;;;53.25;41.00;;;;;-142.71;100.00;64517.53;3725081;37;21524;-59
2021/03/14 00:40:40;;;;;;;;;50.75;39.00;;;;;-142.71;100.00;64517.53;3725158;38;21553;-61
2021/03/14 00:43:08;;;;;;;;;46.50;39.75;;;;;-142.71;100.00;64517.53;3725089;38;21505;-58
2021/03/14 00:45:37;;;;;;;;;50.00;40.75;;;;;-142.71;100.00;64517.53;3724666;38;21539;-59
2021/03/14 00:48:07;;;;;;;;;54.75;42.25;;;;;-142.71;100.00;64517.53;3724893;38;21522;-59
2021/03/14 00:50:40;;;;;;;;;56.75;45.00;;;;;-142.71;100.00;64517.53;3725288;38;21534;-59
2021/03/14 00:53:06;;;;;;;;;52.75;41.25;;;;;-142.71;100.00;64517.53;3724577;38;21490;-59
2021/03/14 00:55:33;;;;;;;;;42.00;38.00;;;;;-142.71;100.00;64517.53;3725692;37;21514;-60
2021/03/14 00:58:00;;;;;;;;;55.75;42.25;;;;;-142.71;100.00;64517.53;3725773;37;21499;-59
2021/03/14 01:00:28;;;;;;;;;54.00;42.75;;;;;-142.71;100.00;64517.53;3724521;37;21517;-60
2021/03/14 01:02:56;;;;;;;;;52.25;42.50;;;;;-142.71;100.00;64517.53;3725436;38;21484;-59
2021/03/14 01:05:26;;;;;;;;;53.00;42.00;;;;;-142.71;100.00;64517.53;3737699;38;21510;-59
2021/03/14 01:07:56;;;;;;;;;46.50;34.75;;;;;-142.71;100.00;64517.53;3738276;37;21478;-59
2021/03/14 01:10:25;;;;;;;;;52.75;41.75;;;;;-142.71;100.00;64517.53;3736134;38;21530;-58
2021/03/14 01:12:53;;;;;;;;;47.50;40.25;;;;;-142.71;100.00;64517.53;3737462;37;21488;-59
2021/03/14 01:15:19;;;;;;;;;48.75;39.50;;;;;-142.71;100.00;64517.53;3737239;38;21518;-58
2021/03/14 01:17:45;;;;;;;;;51.50;36.50;;;;;-142.71;100.00;64517.53;3727296;37;21480;-58
2021/03/14 01:20:17;;;;;;;;;59.00;45.75;;;;;-142.71;100.00;64517.53;3725143;37;21511;-60
2021/03/14 01:22:45;;;;;;;;;51.50;40.50;;;;;-142.71;100.00;64517.53;3724750;38;21390;-60
2021/03/14 01:25:20;;;;;;;;;53.25;41.00;;;;;-142.71;100.00;64517.53;3724727;37;21472;-58
2021/03/14 01:27:54;;;;;;;;;53.00;41.75;;;;;-142.71;100.00;64517.53;3724597;38;21387;-60
2021/03/14 01:30:22;;;;;;;;;50.75;41.75;;;;;-142.71;100.00;64517.53;3724905;37;21465;-60
2021/03/14 01:32:50;;;;;;;;;58.00;44.00;;;;;-142.71;100.00;64517.53;3724728;38;21450;-60
2021/03/14 01:35:18;;;;;;;;;54.50;40.75;;;;;-142.71;100.00;64517.53;3725249;38;21428;-58
2021/03/14 01:37:45;;;;;;;;;52.25;40.75;;;;;-142.71;100.00;64517.53;3724593;38;21423;-59
2021/03/14 01:40:15;;;;;;;;;58.25;46.75;;;;;-142.71;100.00;64517.53;3724931;37;21454;-60
2021/03/14 01:42:42;;;;;;;;;61.50;48.25;;;;;-142.71;100.00;64517.53;3724966;38;21419;-60
2021/03/14 01:45:13;;;;;;;;;47.50;41.75;;;;;-142.71;100.00;64517.53;3724657;37;21454;-60
2021/03/14 01:47:42;;;;;;;;;63.00;45.00;;;;;-142.71;100.00;64517.53;3724590;37;21445;-59
2021/03/14 01:50:12;;;;;;;;;55.50;43.00;;;;;-142.71;100.00;64517.53;3724971;38;21443;-61
2021/03/14 01:52:39;;;;;;;;;58.50;42.25;;;;;-142.71;100.00;64517.53;3725260;37;21427;-60
2021/03/14 01:55:09;;;;;;;;;57.75;44.25;;;;;-142.71;100.00;64517.53;3725174;37;21425;-59
2021/03/14 01:57:40;;;;;;;;;54.25;42.50;;;;;-142.71;100.00;64517.53;3724620;37;21403;-61
2021/03/14 02:00:12;;;;;;;;;57.75;42.50;;;;;-142.71;100.00;64517.53;3724716;37;21450;-60
2021/03/14 02:02:41;;;;;;;;;54.75;41.50;;;;;-142.71;100.00;64517.53;3725326;37;21399;-61
2021/03/14 02:05:10;;;;;;;;;54.00;42.50;;;;;-142.71;100.00;64517.53;3724728;38;21443;-60
2021/03/14 02:07:40;;;;;;;;;57.25;44.25;;;;;-142.71;100.00;64517.53;3724956;37;21427;-62
2021/03/14 02:10:11;;;;;;;;;58.75;43.50;;;;;-142.71;100.00;64517.53;3724725;37;21419;-61
2021/03/14 02:13:08;;;;;;;;;57.50;45.25;;;;;-142.71;100.00;64517.53;3724724;37;21431;-59
2021/03/14 02:15:41;;;;;;;;;54.00;41.50;;;;;-142.71;100.00;64517.53;3724722;37;21431;-60
2021/03/14 02:18:11;;;;;;;;;56.75;41.75;;;;;-142.71;100.00;64517.53;3724639;38;21380;-60
2021/03/14 02:20:41;;;;;;;;;56.00;42.50;;;;;-142.71;100.00;64517.53;3724582;38;21397;-59
2021/03/14 02:23:50;;;;;;;;;48.50;39.50;;;;;-142.71;100.00;64517.53;3725052;37;21373;-61
2021/03/14 02:26:47;;;;;;;;;57.00;42.25;;;;;-142.71;100.00;64517.53;3724839;37;21383;-61
2021/03/14 02:29:22;;;;;;;;;52.00;43.00;;;;;-142.71;100.00;64517.53;3724733;37;21389;-59
2021/03/14 02:31:51;;;;;;;;;50.75;42.75;;;;;-142.71;100.00;64517.53;3725145;37;21375;-59
2021/03/14 02:34:23;;;;;;;;;57.75;43.75;;;;;-142.71;100.00;64517.53;3725213;37;21384;-60
2021/03/14 02:36:52;;;;;;;;;51.00;42.50;;;;;-142.71;100.00;64517.53;3725139;38;21401;-60
2021/03/14 02:39:22;;;;;;;;;54.75;42.50;;;;;-142.71;100.00;64517.53;3725007;38;21447;-59
2021/03/14 02:41:56;;;;;;;;;61.75;46.25;;;;;-142.71;100.00;64517.53;3725025;38;21374;-60
2021/03/14 02:44:27;;;;;;;;;59.25;45.25;;;;;-142.71;100.00;64517.53;3724347;37;21360;-59
2021/03/14 02:47:11;;;;;;;;;56.75;42.75;;;;;-142.71;100.00;64517.53;3725083;37;21367;-60
2021/03/14 02:49:39;;;;;;;;;61.00;46.00;;;;;-142.71;100.00;64517.53;3724646;37;21351;-61
2021/03/14 02:52:09;;;;;;;;;62.50;44.50;;;;;-142.71;100.00;64517.53;3724477;37;21390;-61
2021/03/14 02:54:41;;;;;;;;;61.50;45.75;;;;;-142.71;100.00;64517.53;3724698;38;21347;-61
2021/03/14 02:57:10;;;;;;;;;61.25;47.50;;;;;-142.71;100.00;64517.53;3725182;38;21362;-59
2021/03/14 02:59:37;;;;;;;;;60.75;47.25;;;;;-142.71;100.00;64517.53;3724617;37;21348;-61
2021/03/14 03:02:09;;;;;;;;;62.50;45.00;;;;;-142.71;100.00;64517.53;3724694;37;21321;-60
2021/03/14 03:04:37;;;;;;;;;59.00;44.25;;;;;-142.71;100.00;64517.53;3724795;37;21327;-61
2021/03/14 03:07:05;;;;;;;;;54.75;43.75;;;;;-142.71;100.00;64517.53;3724740;38;21369;-60
2021/03/14 03:09:32;;;;;;;;;59.50;43.00;;;;;-142.71;100.00;64517.53;3724646;38;21334;-60
2021/03/14 03:12:03;;;;;;;;;53.50;43.25;;;;;-142.71;100.00;64517.53;3724890;38;21356;-59
2021/03/14 03:14:33;;;;;;;;;56.25;44.00;;;;;-142.71;100.00;64517.53;3724593;38;21312;-60
2021/03/14 03:17:04;;;;;;;;;60.25;45.50;;;;;-142.71;100.00;64517.53;3724629;37;21350;-60
2021/03/14 03:19:33;;;;;;;;;58.75;46.25;;;;;-142.71;100.00;64517.53;3724635;37;21396;-60
2021/03/14 03:21:59;;;;;;;;;63.50;46.00;;;;;-142.71;100.00;64517.53;3724622;38;21318;-61
2021/03/14 03:24:27;;;;;;;;;61.75;46.75;;;;;-142.71;100.00;64517.53;3725055;37;21302;-59
2021/03/14 03:26:55;;;;;;;;;62.00;47.50;;;;;-142.71;100.00;64517.53;3724747;38;21318;-60
2021/03/14 03:29:22;;;;;;;;;69.25;48.75;;;;;-142.71;100.00;64517.53;3724609;37;21418;-60
2021/03/14 03:31:53;;;;;;;;;60.50;47.50;;;;;-142.71;100.00;64517.53;3725149;37;21329;-60
2021/03/14 03:34:22;;;;;;;;;59.50;48.00;;;;;-142.71;100.00;64517.53;3724566;37;21280;-60
2021/03/14 03:36:49;;;;;;;;;67.50;48.50;;;;;-142.71;100.00;64517.53;3724627;37;21357;-59
2021/03/14 03:39:17;;;;;;;;;66.75;51.00;;;;;-142.71;100.00;64517.53;3725247;38;21271;-60
2021/03/14 03:42:01;;;;;;;;;62.00;47.50;;;;;-142.71;100.00;64517.53;3724336;37;21302;-60
2021/03/14 03:44:34;;;;;;;;;69.50;49.50;;;;;-142.71;100.00;64517.53;3724745;38;21271;-61
2021/03/14 03:47:05;;;;;;;;;61.00;46.50;;;;;-142.71;100.00;64517.53;3725349;38;21283;-60
2021/03/14 03:49:39;;;;;;;;;66.00;48.25;;;;;-142.71;100.00;64517.53;3724707;38;21307;-60
2021/03/14 03:52:09;;;;;;;;;60.50;46.50;;;;;-142.71;100.00;64517.53;3725325;37;21278;-59
2021/03/14 03:54:36;;;;;;;;;71.50;52.00;;;;;-142.71;100.00;64517.53;3724392;37;21255;-61
2021/03/14 03:57:05;;;;;;;;;60.00;49.00;;;;;-142.71;100.00;64517.53;3724626;38;21278;-61
2021/03/14 03:59:36;;;;;;;;;63.00;49.25;;;;;-142.71;100.00;64517.53;3724727;38;21247;-60
2021/03/14 04:02:08;;;;;;;;;68.25;47.25;;;;;-142.71;100.00;64517.53;3724828;38;21271;-61
2021/03/14 04:04:37;;;;;;;;;62.75;48.50;;;;;-142.71;100.00;64517.53;3724806;38;21262;-60
2021/03/14 04:07:07;;;;;;;;;65.00;51.25;;;;;-142.71;100.00;64517.53;3725104;38;21284;-61
2021/03/14 04:09:34;;;;;;;;;66.00;50.00;;;;;-142.71;100.00;64517.53;3724527;38;21222;-61
2021/03/14 04:12:02;;;;;;;;;66.00;51.00;;;;;-142.71;100.00;64517.53;3725128;38;21251;-61
2021/03/14 04:14:35;;;;;;;;;62.25;49.50;;;;;-142.71;100.00;64517.53;3724598;38;21243;-62
2021/03/14 04:17:04;;;;;;;;;65.50;52.50;;;;;-142.71;100.00;64517.53;3725275;37;21245;-62
2021/03/14 04:19:36;;;;;;;;;69.75;52.75;;;;;-142.71;100.00;64517.53;3725213;37;21240;-60
2021/03/14 04:22:06;;;;;;;;;67.50;53.75;;;;;-142.71;100.00;64517.53;3725257;37;21260;-61
2021/03/14 04:24:36;;;;;;;;;64.25;51.00;;;;;-142.71;100.00;64517.53;3725280;38;21237;-62
2021/03/14 04:27:03;;;;;;;;;70.50;52.25;;;;;-142.71;100.00;64517.53;3724775;37;21260;-59
2021/03/14 04:29:32;;;;;;;;;71.00;53.50;;;;;-142.71;100.00;64517.53;3725204;37;21210;-61
2021/03/14 04:32:00;;;;;;;;;74.00;53.75;;;;;-142.71;100.00;64517.53;3724942;38;21246;-61
2021/03/14 04:34:31;;;;;;;;;76.75;53.50;;;;;-142.71;100.00;64517.53;3725169;37;21216;-59
2021/03/14 04:36:58;;;;;;;;;71.50;51.75;;;;;-142.71;100.00;64517.53;3724638;37;21261;-60
2021/03/14 04:39:25;;;;;;;;;67.50;51.25;;;;;-142.71;100.00;64517.53;3725198;37;21190;-61
2021/03/14 04:41:53;;;;;;;;;68.00;53.00;;;;;-142.71;100.00;64517.53;3725343;37;21227;-61
2021/03/14 04:44:21;;;;;;;;;63.00;48.75;;;;;-142.71;100.00;64517.53;3725461;37;21207;-61
2021/03/14 04:46:48;;;;;;;;;62.75;51.25;;;;;-142.71;100.00;64517.53;3725106;37;21220;-60
2021/03/14 04:49:14;;;;;;;;;65.75;51.00;;;;;-142.71;100.00;64517.53;3725766;37;21194;-60
2021/03/14 04:51:46;;;;;;;;;72.75;49.50;;;;;-142.71;100.00;64517.53;3725357;37;21208;-60
2021/03/14 04:54:15;;;;;;;;;75.00;54.25;;;;;-142.71;100.00;64517.53;3725387;37;21189;-60
2021/03/14 04:56:50;;;;;;;;;73.75;55.75;;;;;-142.71;100.00;64517.53;3730755;37;21187;-62
2021/03/14 04:59:40;;;;;;;;;78.00;56.00;;;;;-142.71;100.00;64517.53;3740829;37;21183;-60
2021/03/14 05:02:13;;;;;;;;;72.75;55.50;;;;;-142.71;100.00;64517.53;3732572;37;21309;-61
2021/03/14 05:04:42;;;;;;;;;75.75;55.50;;;;;-142.71;100.00;64517.53;3730542;38;21157;-60
2021/03/14 05:07:15;;;;;;;;;77.25;57.25;;;;;-142.71;100.00;64517.53;3740087;38;21196;-61
2021/03/14 05:09:43;;;;;;;;;75.00;57.00;;;;;-142.71;100.00;64517.53;3739457;38;21181;-60
2021/03/14 05:12:10;;;;;;;;;74.25;57.25;;;;;-142.71;100.00;64517.53;3727999;37;21125;-60
2021/03/14 05:14:37;;;;;;;;;75.50;56.50;;;;;-142.71;100.00;64517.53;3725122;37;21156;-62
2021/03/14 05:17:07;;;;;;;;;79.25;58.50;;;;;-142.71;100.00;64517.53;3725249;37;21175;-62
2021/03/14 05:19:35;;;;;;;;;76.75;56.00;;;;;-142.71;100.00;64517.53;3724961;38;21137;-60
2021/03/14 05:22:03;;;;;;;;;72.50;56.25;;;;;-142.71;100.00;64517.53;3724849;37;21162;-60
2021/03/14 05:24:30;;;;;;;;;73.50;54.75;;;;;-142.71;100.00;64517.53;3725138;37;21135;-60
2021/03/14 05:27:00;;;;;;;;;77.75;57.00;;;;;-142.71;100.00;64517.53;3725244;38;21152;-59
2021/03/14 05:29:27;;;;;;;;;70.75;54.75;;;;;-142.71;100.00;64517.53;3725141;37;21126;-57
2021/03/14 05:31:58;;;;;;;;;72.75;52.00;;;;;-142.71;100.00;64517.53;3725065;37;21158;-57
2021/03/14 05:34:25;;;;;;;;;74.75;54.00;;;;;-142.71;100.00;64517.53;3724528;38;21134;-56
2021/03/14 05:36:52;;;;;;;;;67.00;51.50;;;;;-142.71;100.00;64517.53;3725107;38;21145;-56
2021/03/14 05:39:21;;;;;;;;;70.75;55.75;;;;;-142.71;100.00;64517.53;3724658;37;21122;-57
2021/03/14 05:41:48;;;;;;;;;68.50;51.25;;;;;-142.71;100.00;64517.53;3725250;37;21129;-57
2021/03/14 05:44:14;;;;;;;;;68.75;52.25;;;;;-142.71;100.00;64517.53;3725247;37;21111;-60
2021/03/14 05:46:42;;;;;;;;;66.00;51.50;;;;;-142.71;100.00;64517.53;3725006;37;21120;-58
2021/03/14 05:49:11;;;;;;;;;70.00;53.50;;;;;-142.71;100.00;64517.53;3724373;37;21086;-57
2021/03/14 05:51:44;;;;;;;;;70.00;53.00;;;;;-142.71;100.00;64517.53;3724505;38;21136;-56
2021/03/14 05:54:17;;;;;;;;;82.50;58.00;;;;;-142.71;100.00;64517.53;3724535;37;21103;-58
2021/03/14 05:56:45;;;;;;;;;70.25;55.25;;;;;-142.71;100.00;64517.53;3724086;38;21106;-57
2021/03/14 05:59:15;;;;;;;;;67.75;52.00;;;;;-142.71;100.00;64517.53;3724797;37;21087;-56
2021/03/14 06:01:51;;;;;;;;;62.75;48.50;;;;;-142.71;100.00;64517.53;3724556;38;21117;-57
2021/03/14 06:04:30;;;;;;;;;63.00;48.75;;;;;-142.71;100.00;64517.53;3725228;37;21116;-56
2021/03/14 06:06:57;;;;;;;;;63.50;47.25;;;;;-142.71;100.00;64517.53;3725091;38;21127;-55
2021/03/14 06:09:26;;;;;;;;;59.00;46.25;;;;;-142.71;100.00;64517.53;3724880;37;21068;-55
2021/03/14 06:11:53;;;;;;;;;57.75;46.00;;;;;-142.71;100.00;64517.53;3724491;37;21092;-56
2021/03/14 06:14:19;;;;;;;;;59.75;47.50;;;;;-142.71;100.00;64517.53;3725212;37;21061;-56
2021/03/14 06:16:47;;;;;;;;;62.75;48.25;;;;;-142.71;100.00;64517.53;3725103;37;21086;-56
2021/03/14 06:19:20;;;;;;;;;65.00;51.00;;;;;-142.71;100.00;64517.53;3724306;37;21417;-55
2021/03/14 06:21:50;;;;;;;;;63.50;49.00;;;;;-142.71;100.00;64517.53;3725352;37;21076;-58
2021/03/14 06:24:16;;;;;;;;;67.25;50.75;;;;;-142.71;100.00;64517.53;3725476;38;21082;-57
2021/03/14 06:26:55;;;;;;;;;61.00;49.50;;;;;-142.71;100.00;64517.53;3725318;37;21076;-56
2021/03/14 06:29:23;;;;;;;;;63.75;50.75;;;;;-142.71;100.00;64517.53;3725022;38;21084;-55
2021/03/14 06:31:59;;;;;;;;;61.00;48.50;;;;;-142.71;100.00;64517.53;3724640;38;21093;-56
2021/03/14 06:34:38;;;;;;;;;61.75;47.25;;;;;-142.71;100.00;64517.53;3724697;37;21044;-54
2021/03/14 06:37:22;;;;;;;;;57.50;46.00;;;;;-142.71;100.00;64517.53;3724705;37;21067;-58
2021/03/14 06:39:51;;;;;;;;;61.00;46.50;;;;;-142.71;100.00;64517.53;3725089;38;21023;-57
2021/03/14 06:42:33;;;;;;;;;55.25;44.75;;;;;-142.71;100.00;64517.53;3725047;38;21006;-58
2021/03/14 06:45:15;;;;;;;;;53.25;42.00;;;;;-142.71;100.00;64517.53;3725233;38;21021;-56
2021/03/14 06:47:49;;;;;;;;;54.75;43.75;;;;;-142.71;100.00;64517.53;3725438;38;21054;-56
2021/03/14 06:50:40;;;;;;;;;50.75;41.00;;;;;-142.71;100.00;64517.53;3724616;37;21040;-56
2021/03/14 06:53:11;;;;;;;;;54.50;44.25;;;;;-142.71;100.00;64517.53;3724706;38;21016;-58
2021/03/14 06:55:40;;;;;;;;;53.50;39.75;;;;;-142.71;100.00;64517.53;3724581;38;21029;-55
2021/03/14 06:58:27;;;;;;;;;58.00;46.00;;;;;-142.71;100.00;64517.53;3724595;37;21027;-58
2021/03/14 07:01:15;;;;;;;;;43.00;38.00;;;;;-142.71;100.00;64517.53;3725235;37;21013;-56
2021/03/14 07:03:47;;;;;;;;;48.25;40.50;;;;;-142.71;100.00;64517.53;3725248;37;21037;-57
2021/03/14 07:06:24;;;;;;;;;49.25;38.25;;;;;-142.71;100.00;64517.53;3725203;37;21056;-57
2021/03/14 07:09:11;;;;;;;;;52.00;41.50;;;;;-142.71;100.00;64517.53;3725236;37;21028;-57
2021/03/14 07:11:42;;;;;;;;;54.00;42.25;;;;;-142.71;100.00;64517.53;3725173;37;20985;-57
2021/03/14 07:14:14;;;;;;;;;53.75;42.75;;;;;-142.71;100.00;64517.53;3724830;38;21183;-59
2021/03/14 07:16:55;;;;;;;;;54.50;43.00;;;;;-142.71;100.00;64517.53;3724989;37;21073;-56
2021/03/14 07:19:30;;;;;;;;;53.75;43.50;;;;;-142.71;100.00;64517.53;3724834;37;21024;-58
2021/03/14 07:22:06;;;;;;;;;56.25;43.75;;;;;-142.71;100.00;64517.53;3724750;37;20953;-56
2021/03/14 07:24:35;;;;;;;;;53.25;42.50;;;;;-142.71;100.00;64517.53;3725233;38;20994;-56
2021/03/14 07:27:04;;;;;;;;;59.00;47.25;;;;;-142.71;100.00;64517.53;3725300;38;20977;-56
2021/03/14 07:29:31;;;;;;;;;63.25;48.50;;;;;-142.71;100.00;64517.53;3725303;37;21001;-58
2021/03/14 07:31:58;;;;;;;;;50.75;39.75;;;;;-142.71;100.00;64517.53;3725457;37;20963;-56
2021/03/14 07:34:26;;;;;;;;;51.25;40.00;;;;;-142.71;100.00;64517.53;3725484;38;21152;-58
2021/03/14 07:36:53;;;;;;;;;54.50;42.75;;;;;-142.71;100.00;64517.53;3725768;38;20952;-59
2021/03/14 07:39:20;;;;;;;;;45.75;37.75;;;;;-142.71;100.00;64517.53;3724781;38;20987;-59
2021/03/14 07:41:49;;;;;;;;;49.00;38.00;;;;;-142.71;100.00;64517.53;3725657;37;20977;-58
2021/03/14 07:44:19;;;;;;;;;54.25;40.50;;;;;-142.71;100.00;64517.53;3724741;37;20892;-59
2021/03/14 07:46:46;;;;;;;;;49.50;39.25;;;;;-142.71;100.00;64517.53;3724816;38;20942;-60
2021/03/14 07:49:16;;;;;;;;;41.75;36.50;;;;;-142.71;100.00;64517.53;3725380;37;20966;-59
2021/03/14 07:51:49;;;;;;;;;54.75;40.00;;;;;-142.71;100.00;64517.53;3724738;38;20925;-61
2021/03/14 07:54:44;;;;;;;;;52.50;42.50;;;;;-142.71;100.00;64517.53;3725483;37;20966;-59
2021/03/14 07:57:12;;;;;;;;;53.25;42.00;;;;;-142.71;100.00;64517.53;3725273;37;20905;-61
2021/03/14 07:59:42;;;;;;;;;57.25;43.00;;;;;-142.71;100.00;64517.53;3724661;38;20943;-58
2021/03/14 08:02:52;;;;;;;;;51.50;37.00;;;;;-142.71;100.00;64517.53;3724906;37;20939;-59
2021/03/14 08:05:20;;;;;;;;;54.00;43.50;;;;;-142.71;100.00;64517.53;3725171;38;20921;-58
2021/03/14 08:07:47;;;;;;;;;52.00;39.50;;;;;-142.71;100.00;64517.53;3724664;38;20903;-60
2021/03/14 08:10:41;;;;;;;;;47.00;39.75;;;;;-142.71;100.00;64517.53;3724742;37;20072;-60
2021/03/14 08:13:18;;;;;;;;;49.50;39.75;;;;;-142.71;100.00;64517.53;3724557;38;20896;-56
2021/03/14 08:16:00;;;;;;;;;49.25;40.75;;;;;-142.71;100.00;64517.53;3724831;37;20903;-60
2021/03/14 08:19:10;;;;;;;;;52.00;40.75;;;;;-142.71;100.00;64517.53;3725273;38;20901;-61
2021/03/14 08:21:41;;;;;;;;;42.75;32.25;;;;;-142.71;100.00;64517.53;3725364;37;20920;-61
2021/03/14 08:24:08;;;;;;;;;56.25;40.00;;;;;-142.71;100.00;64517.53;3724712;38;20901;-61
2021/03/14 08:26:37;;;;;;;;;53.75;44.00;;;;;-142.71;100.00;64517.53;3724687;38;20910;-62
2021/03/14 08:29:13;;;;;;;;;49.00;39.50;;;;;-142.71;100.00;64517.53;3724787;37;20901;-61
2021/03/14 08:31:48;;;;;;;;;52.25;38.75;;;;;-142.71;100.00;64517.53;3725368;37;20911;-60
2021/03/14 08:34:47;;;;;;;;;50.50;39.00;;;;;-142.71;100.00;64517.53;3725048;38;20770;-60
2021/03/14 08:37:27;;;;;;;;;50.00;39.25;;;;;-142.71;100.00;64517.53;3725459;37;20833;-60
2021/03/14 08:40:06;;;;;;;;;49.25;38.25;;;;;-142.71;100.00;64517.53;3725160;37;20958;-61
2021/03/14 08:42:55;;;;;;;;;51.75;39.25;;;;;-142.71;100.00;64517.53;3725267;38;20910;-61
2021/03/14 08:45:27;;;;;;;;;49.75;39.75;;;;;-142.71;100.00;64517.53;3725604;38;20916;-61
2021/03/14 08:47:54;;;;;;;;;45.50;38.25;;;;;-142.71;100.00;64517.53;3725092;37;21001;-61
2021/03/14 08:50:24;;;;;;;;;46.25;38.25;;;;;-142.71;100.00;64517.53;3727677;38;20889;-61
2021/03/14 08:52:51;;;;;;;;;46.75;36.50;;;;;-142.71;100.00;64517.53;3739380;38;20887;-60
2021/03/14 08:55:17;;;;;;;;;53.25;42.50;;;;;-142.71;100.00;64517.53;3734134;37;20902;-60
2021/03/14 08:57:46;;;;;;;;;44.75;35.50;;;;;-142.71;100.00;64517.53;3733993;37;20899;-60
2021/03/14 09:00:24;;;;;;;;;43.00;36.25;;;;;-142.71;100.00;64517.53;3737859;37;20881;-61
2021/03/14 09:02:50;;;;;;;;;50.50;40.50;;;;;-142.71;100.00;64517.53;3736615;37;20841;-60
2021/03/14 09:05:21;;;;;;;;;45.50;36.50;;;;;-142.71;100.00;64517.53;3734137;38;20854;-62
2021/03/14 09:08:05;;;;;;;;;44.75;36.50;;;;;-142.71;100.00;64517.53;3725750;37;20861;-61
2021/03/14 09:10:36;;;;;;;;;47.25;36.50;;;;;-142.71;100.00;64517.53;3726645;38;20847;-59
2021/03/14 09:13:04;;;;;;;;;50.50;39.00;;;;;-142.71;100.00;64517.53;3725631;38;20846;-60
2021/03/14 09:15:38;;;;;;;;;44.00;35.50;;;;;-142.71;100.00;64517.53;3725328;37;20850;-59
2021/03/14 09:18:04;;;;;;;;;42.50;35.75;;;;;-142.71;100.00;64517.53;3724770;37;20843;-61
2021/03/14 09:20:41;;;;;;;;;49.00;36.25;;;;;-142.71;100.00;64517.53;3725293;37;20988;-60
2021/03/14 09:23:13;;;;;;;;;46.00;35.25;;;;;-142.71;100.00;64517.53;3725322;37;20858;-63
2021/03/14 09:25:58;;;;;;;;;50.00;40.50;;;;;-142.71;100.00;64517.53;3724737;38;20761;-60
2021/03/14 09:28:27;;;;;;;;;48.50;36.00;;;;;-142.71;100.00;64517.53;3725138;38;21159;-60
2021/03/14 09:30:54;;;;;;;;;47.00;34.75;;;;;-142.71;100.00;64517.53;3724569;38;20850;-62
2021/03/14 09:33:21;;;;;;;;;45.00;35.00;;;;;-142.71;100.00;64517.53;3725478;37;20778;-61
2021/03/14 09:35:47;;;;;;;;;45.00;35.00;;;;;-142.71;100.00;64517.53;3481497;37;222372;-60
2021/03/14 09:38:16;;;;;;;;;48.25;38.50;;;;;-142.71;100.00;64517.53;3724582;37;20740;-63
2021/03/14 09:40:51;;;;;;;;;46.50;35.00;;;;;-142.71;100.00;64517.53;3725067;38;20822;-61
2021/03/14 09:43:31;;;;;;;;;42.25;34.25;;;;;-142.71;100.00;64517.53;3724962;38;20719;-62
2021/03/14 09:46:00;;;;;;;;;48.75;38.25;;;;;-142.71;100.00;64517.53;3724695;37;20997;-61
2021/03/14 09:48:34;;;;;;;;;51.25;40.75;;;;;-142.71;100.00;64517.53;3725035;37;20813;-61
2021/03/14 09:51:07;;;;;;;;;44.25;35.75;;;;;-142.71;100.00;64517.53;3725470;37;20804;-61
2021/03/14 09:53:41;;;;;;;;;45.50;36.25;;;;;-142.71;100.00;64517.53;3725120;38;20696;-60
2021/03/14 09:56:09;;;;;;;;;43.00;36.50;;;;;-142.71;100.00;64517.53;3725205;38;20798;-64
2021/03/14 09:58:37;;;;;;;;;50.75;37.00;;;;;-142.71;100.00;64517.53;3725117;37;20780;-59
2021/03/14 10:01:11;;;;;;;;;42.25;36.00;;;;;-142.71;100.00;64517.53;3724974;38;20791;-61
2021/03/14 10:03:38;;;;;;;;;42.00;37.00;;;;;-142.71;100.00;64517.53;3724797;38;20755;-60
2021/03/14 10:06:16;;;;;;;;;45.00;36.75;;;;;-142.71;100.00;64517.53;3725119;37;20771;-61
2021/03/14 10:08:42;;;;;;;;;49.25;38.50;;;;;-142.71;100.00;64517.53;3725114;38;20782;-60
2021/03/14 10:11:17;;;;;;;;;42.25;34.50;;;;;-142.71;100.00;64517.53;3725369;38;20756;-62
2021/03/14 10:13:53;;;;;;;;;42.75;34.75;;;;;-142.71;100.00;64517.53;3725069;38;20778;-60
2021/03/14 10:16:26;;;;;;;;;43.25;35.00;;;;;-142.71;100.00;64517.53;3725518;38;20756;-61
2021/03/14 10:19:00;;;;;;;;;43.75;36.25;;;;;-142.71;100.00;64517.53;3724914;38;20752;-62
2021/03/14 10:21:29;;;;;;;;;41.00;33.75;;;;;-142.71;100.00;64517.53;3724996;37;20665;-61
2021/03/14 10:24:26;;;;;;;;;37.00;33.25;;;;;-142.71;100.00;64517.53;3725106;38;20552;-60
2021/03/14 10:26:59;;;;;;;;;37.50;32.75;;;;;-142.71;100.00;64517.53;3724822;37;20622;-60
2021/03/14 10:29:33;;;;;;;;;37.00;31.00;;;;;-142.71;100.00;64517.53;3724908;37;20632;-63
2021/03/14 10:32:01;;;;;;;;;40.00;34.75;;;;;-142.71;100.00;64517.53;3724771;37;20663;-63
2021/03/14 10:34:28;;;;;;;;;33.50;30.50;;;;;-142.71;100.00;64517.53;3724892;38;20640;-61
2021/03/14 10:36:54;;;;;;;;;36.75;32.50;;;;;-142.71;100.00;64517.53;3724985;37;20652;-62
2021/03/14 10:39:30;;;;;;;;;48.00;39.50;;;;;-142.71;100.00;64517.53;3725411;38;20636;-61
2021/03/14 10:41:59;;;;;;;;;41.00;34.00;;;;;-142.71;100.00;64517.53;3725363;38;20648;-61
2021/03/14 10:44:27;;;;;;;;;39.75;34.25;;;;;-142.71;100.00;64517.53;3725654;37;20624;-60
2021/03/14 10:46:56;;;;;;;;;35.00;32.25;;;;;-142.71;100.00;64517.53;3724894;37;20604;-62
2021/03/14 10:49:31;;;;;;;;;38.00;33.25;;;;;-142.71;100.00;64517.53;3725007;38;20631;-61
2021/03/14 10:51:59;;;;;;;;;46.00;36.00;;;;;-142.71;100.00;64517.53;3725467;37;20623;-63
2021/03/14 10:54:34;;;;;;;;;41.75;35.50;;;;;-142.71;100.00;64517.53;3725245;37;20609;-62
2021/03/14 10:57:00;;;;;;;;;40.00;33.25;;;;;-142.71;100.00;64517.53;3725404;37;20606;-60
2021/03/14 10:59:29;;;;;;;;;43.25;35.75;;;;;-142.71;100.00;64517.53;3725417;37;20600;-61
2021/03/14 11:02:16;;;;;;;;;38.75;34.00;;;;;-142.71;100.00;64517.53;3725373;37;20595;-60
2021/03/14 11:04:57;;;;;;;;;37.50;33.00;;;;;-142.71;100.00;64517.53;3725242;37;20593;-62
2021/03/14 11:07:34;;;;;;;;;39.75;33.75;;;;;-142.71;100.00;64517.53;3724881;38;20579;-60
2021/03/14 11:10:14;;;;;;;;;47.75;38.75;;;;;-142.71;100.00;64517.53;3725648;38;20455;-63
2021/03/14 11:12:50;;;;;;;;;47.00;39.00;;;;;-142.71;100.00;64517.53;3726443;38;20702;-62
2021/03/14 11:15:26;;;;;;;;;52.00;42.00;;;;;-142.71;100.00;64517.53;3726770;38;20572;-62